Time;durP1;ratioP1;P1;durP2;ratioP2;P2;SDS_P1;SDS_P2;PMS_P1;PMS_P2;Temp;Humidity;BMP_temperature;BMP_pressure;BME280_temperature;BME280_humidity;BME280_pressure;Samples;Min_cycle;Max_cycle;Signal;HPM_P1;HPM_P2
2021/03/20 00:00:30;;;;;;;15.93;9.07;;;0.90;99.90;;;;;;4904078;29;20025;-91
2021/03/20 00:02:56;;;;;;;14.32;8.15;;;1.10;99.90;;;;;;4904335;29;20401;-91
2021/03/20 00:05:22;;;;;;;15.07;8.35;;;1.40;99.90;;;;;;4903971;29;20024;-91
2021/03/20 00:07:51;;;;;;;13.93;8.60;;;1.30;99.90;;;;;;4903814;29;20047;-91
2021/03/20 00:10:20;;;;;;;15.90;9.07;;;1.10;99.90;;;;;;4904078;29;20024;-91
2021/03/20 00:12:49;;;;;;;18.55;9.82;;;1.10;99.90;;;;;;4903551;29;20119;-90
2021/03/20 00:15:18;;;;;;;10.20;6.93;;;1.10;99.90;;;;;;4901856;29;20512;-90
2021/03/20 00:17:43;;;;;;;14.30;8.00;;;1.60;99.90;;;;;;4902985;29;20028;-91
2021/03/20 00:20:13;;;;;;;13.30;7.82;;;1.80;99.90;;;;;;4903136;29;20029;-91
2021/03/20 00:22:39;;;;;;;12.85;7.93;;;1.60;99.90;;;;;;4903226;29;20036;-91
2021/03/20 00:25:07;;;;;;;13.15;7.78;;;1.80;99.90;;;;;;4903140;29;20031;-90
2021/03/20 00:27:33;;;;;;;13.43;7.93;;;1.80;99.90;;;;;;4896576;29;683994;-90
2021/03/20 00:29:59;;;;;;;12.60;7.13;;;1.50;99.90;;;;;;4903892;29;20142;-91
2021/03/20 00:32:25;;;;;;;10.50;7.28;;;1.10;99.90;;;;;;4904183;29;20063;-91
2021/03/20 00:34:51;;;;;;;11.77;7.13;;;0.70;99.90;;;;;;4904329;29;20087;-90
2021/03/20 00:37:17;;;;;;;11.45;7.07;;;0.80;99.90;;;;;;4904165;29;20032;-90
2021/03/20 00:39:44;;;;;;;11.35;6.80;;;1.10;99.90;;;;;;4903793;29;20365;-91
2021/03/20 00:42:10;;;;;;;10.93;6.65;;;0.90;99.90;;;;;;4903913;29;20555;-91
2021/03/20 00:44:36;;;;;;;11.57;6.28;;;1.00;99.90;;;;;;4903887;29;20021;-91
2021/03/20 00:47:03;;;;;;;11.35;6.35;;;1.20;99.90;;;;;;4903904;29;20032;-90
2021/03/20 00:49:28;;;;;;;9.13;6.38;;;1.10;99.90;;;;;;4903817;29;20035;-91
2021/03/20 00:51:54;;;;;;;9.00;5.70;;;1.00;99.90;;;;;;4921137;29;20457;-90
2021/03/20 00:54:20;;;;;;;11.10;6.68;;;1.10;99.90;;;;;;4903479;29;20024;-89
2021/03/20 00:56:46;;;;;;;8.65;5.65;;;1.20;99.90;;;;;;4903295;29;20080;-90
2021/03/20 00:59:11;;;;;;;10.32;6.13;;;1.00;99.90;;;;;;4903588;29;20557;-90
2021/03/20 01:01:37;;;;;;;9.52;6.35;;;0.90;99.90;;;;;;4920244;29;20083;-90
2021/03/20 01:04:03;;;;;;;9.70;6.10;;;1.20;99.90;;;;;;4920238;29;20021;-90
2021/03/20 01:06:29;;;;;;;9.07;5.68;;;1.40;99.90;;;;;;4903295;29;20031;-90
2021/03/20 01:08:56;;;;;;;10.07;6.18;;;1.10;99.90;;;;;;4903267;29;20552;-90
2021/03/20 01:11:25;;;;;;;10.82;5.85;;;1.30;99.90;;;;;;4903162;29;20397;-90
2021/03/20 01:13:51;;;;;;;9.65;5.72;;;1.50;99.90;;;;;;4902892;29;20028;-90
2021/03/20 01:16:18;;;;;;;8.60;5.05;;;1.10;99.90;;;;;;4902574;29;20039;-90
2021/03/20 01:18:44;;;;;;;10.25;5.55;;;;;;;;;;4902627;29;20024;-89
2021/03/20 01:21:11;;;;;;;8.77;5.40;;;0.70;99.90;;;;;;4903121;29;20032;-91
2021/03/20 01:23:37;;;;;;;8.80;5.90;;;0.60;99.90;;;;;;4903164;29;20020;-90
2021/03/20 01:26:03;;;;;;;8.48;5.57;;;0.70;99.90;;;;;;4902825;29;20127;-90
2021/03/20 01:28:31;;;;;;;8.63;6.03;;;1.00;99.90;;;;;;4903035;29;20056;-90
2021/03/20 01:30:58;;;;;;;12.93;6.47;;;1.10;99.90;;;;;;4903079;29;20024;-90
2021/03/20 01:33:24;;;;;;;9.40;5.80;;;0.80;99.90;;;;;;4902987;29;20028;-90
2021/03/20 01:35:50;;;;;;;9.77;5.82;;;0.60;99.90;;;;;;4919366;29;20028;-90
2021/03/20 01:38:17;;;;;;;10.98;6.05;;;0.60;99.90;;;;;;4903243;29;20083;-91
2021/03/20 01:40:49;;;;;;;9.43;4.95;;;0.70;99.90;;;;;;4903252;29;20029;-90
2021/03/20 01:43:16;;;;;;;9.25;5.30;;;0.90;99.90;;;;;;4903036;29;20025;-90
2021/03/20 01:45:42;;;;;;;9.70;5.82;;;1.10;99.90;;;;;;4919653;29;20103;-91
2021/03/20 01:48:11;;;;;;;8.48;5.07;;;0.90;99.90;;;;;;4919775;29;20061;-90
2021/03/20 01:50:56;;;;;;;8.10;5.38;;;0.80;99.90;;;;;;4903103;29;20389;-90
2021/03/20 01:53:43;;;;;;;8.50;5.30;;;0.70;99.90;;;;;;4902639;29;20481;-91
2021/03/20 01:56:16;;;;;;;8.05;5.35;;;0.70;99.90;;;;;;4902530;29;20020;-91
2021/03/20 01:58:43;;;;;;;9.23;5.53;;;0.80;99.90;;;;;;4902568;29;20020;-90
2021/03/20 02:01:18;;;;;;;9.55;5.65;;;0.70;99.90;;;;;;4919299;29;20370;-90
2021/03/20 02:03:44;;;;;;;8.45;5.50;;;0.60;99.90;;;;;;4902532;29;20025;-90
2021/03/20 02:06:10;;;;;;;8.60;5.47;;;0.60;99.90;;;;;;4902515;29;20484;-91
2021/03/20 02:08:41;;;;;;;11.65;5.75;;;0.50;99.90;;;;;;4902368;29;20121;-90
2021/03/20 02:11:25;;;;;;;9.27;5.43;;;0.40;99.90;;;;;;4902549;29;20036;-90
2021/03/20 02:14:30;;;;;;;8.10;4.95;;;0.60;99.90;;;;;;4902225;29;20033;-90
2021/03/20 02:16:59;;;;;;;;;;;0.60;99.90;;;;;;4902749;29;20511;-90
2021/03/20 02:19:48;;;;;;;8.27;5.13;;;0.70;99.90;;;;;;4902456;29;19927;-91
2021/03/20 02:22:21;;;;;;;8.57;5.30;;;1.00;99.90;;;;;;4902345;29;20059;-91
2021/03/20 02:25:08;;;;;;;11.07;6.40;;;0.90;99.90;;;;;;4902419;29;20047;-91
2021/03/20 02:28:07;;;;;;;9.23;5.47;;;0.70;99.90;;;;;;4901831;29;20040;-90
2021/03/20 02:30:54;;;;;;;9.73;5.97;;;0.70;99.90;;;;;;4901948;29;20457;-90
2021/03/20 02:34:14;;;;;;;9.30;5.30;;;0.70;99.90;;;;;;4902262;29;20028;-91
2021/03/20 02:37:17;;;;;;;10.05;5.68;;;0.70;99.90;;;;;;4809241;29;20033;-91
2021/03/20 02:40:17;;;;;;;9.68;6.00;;;0.70;99.90;;;;;;4901515;29;20028;-91
2021/03/20 02:42:58;;;;;;;12.25;5.53;;;0.60;99.90;;;;;;4882922;29;20135;-91
2021/03/20 02:45:42;;;;;;;9.05;5.57;;;0.70;99.90;;;;;;4902207;29;20039;-91
2021/03/20 02:48:24;;;;;;;9.77;5.60;;;0.80;99.90;;;;;;4902026;29;20039;-91
2021/03/20 02:51:06;;;;;;;9.90;5.18;;;0.70;99.90;;;;;;4918952;29;20034;-91
2021/03/20 02:53:49;;;;;;;7.93;4.97;;;0.80;99.90;;;;;;4902166;29;20366;-91
2021/03/20 02:56:25;;;;;;;10.45;6.20;;;1.00;99.90;;;;;;4902185;29;20484;-91
2021/03/20 02:59:11;;;;;;;10.88;6.10;;;0.90;99.90;;;;;;4902275;29;20028;-91
2021/03/20 03:01:40;;;;;;;8.65;5.68;;;0.70;99.90;;;;;;4901983;29;20028;-91
2021/03/20 03:04:10;;;;;;;11.20;5.68;;;0.60;99.90;;;;;;4902168;29;20027;-91
2021/03/20 03:06:55;;;;;;;10.50;6.20;;;0.90;99.90;;;;;;4902233;29;20119;-91
2021/03/20 03:09:26;;;;;;;9.80;7.05;;;1.00;99.90;;;;;;4902160;29;20070;-91
2021/03/20 03:11:55;;;;;;;8.52;5.88;;;0.90;99.90;;;;;;4902178;29;20036;-91
2021/03/20 03:14:35;;;;;;;9.88;5.85;;;0.80;99.90;;;;;;4901970;29;20047;-91
2021/03/20 03:17:03;;;;;;;9.93;6.05;;;0.90;99.90;;;;;;4902290;29;20039;-91
2021/03/20 03:19:40;;;;;;;9.35;6.57;;;0.80;99.90;;;;;;4902005;29;20012;-90
2021/03/20 03:22:18;;;;;;;11.73;6.85;;;0.90;99.90;;;;;;4901916;29;20140;-92
2021/03/20 03:24:45;;;;;;;10.52;6.20;;;1.00;99.90;;;;;;4901961;29;20035;-91
2021/03/20 03:27:14;;;;;;;9.70;5.75;;;1.00;99.90;;;;;;4901621;29;20492;-91
2021/03/20 03:29:41;;;;;;;10.07;6.63;;;1.20;99.90;;;;;;4901861;29;20039;-92
2021/03/20 03:32:11;;;;;;;11.23;6.88;;;1.30;99.90;;;;;;4918029;29;20079;-91
2021/03/20 03:34:53;;;;;;;10.65;6.45;;;1.30;99.90;;;;;;4901863;29;20102;-92
2021/03/20 03:37:45;;;;;;;8.88;6.25;;;1.30;99.90;;;;;;4918658;29;20103;-91
2021/03/20 03:40:19;;;;;;;12.57;7.05;;;1.30;99.90;;;;;;4901737;29;20489;-91
2021/03/20 03:42:50;;;;;;;10.30;7.13;;;1.20;99.90;;;;;;4902821;29;20028;-91
2021/03/20 03:45:17;;;;;;;11.00;7.45;;;1.40;99.90;;;;;;4918137;29;20024;-91
2021/03/20 03:47:44;;;;;;;9.18;6.65;;;1.50;99.90;;;;;;4901424;29;20021;-91
2021/03/20 03:50:16;;;;;;;10.77;6.90;;;1.50;99.90;;;;;;4903478;29;20024;-92
2021/03/20 03:52:43;;;;;;;9.20;6.43;;;1.40;99.90;;;;;;4905570;29;20032;-92
2021/03/20 03:55:09;;;;;;;10.85;7.40;;;1.40;99.90;;;;;;4905222;29;20040;-91
2021/03/20 03:58:05;;;;;;;10.60;6.93;;;1.30;99.90;;;;;;4921963;29;20036;-92
2021/03/20 04:00:43;;;;;;;9.75;6.90;;;1.50;99.90;;;;;;4905337;29;20028;-92
2021/03/20 04:03:36;;;;;;;10.63;6.82;;;1.50;99.90;;;;;;4905436;29;20032;-91
2021/03/20 04:06:20;;;;;;;10.65;6.68;;;1.40;99.90;;;;;;4904987;29;20020;-92
2021/03/20 04:09:13;;;;;;;12.52;7.82;;;1.40;99.90;;;;;;4904943;29;20029;-91
2021/03/20 04:11:48;;;;;;;9.88;6.70;;;1.40;99.90;;;;;;4905654;29;20062;-92
2021/03/20 04:14:23;;;;;;;10.10;6.15;;;1.40;99.90;;;;;;4922435;29;20448;-92
2021/03/20 04:17:14;;;;;;;10.18;6.97;;;1.30;99.90;;;;;;4905188;29;20084;-92
2021/03/20 04:20:01;;;;;;;11.75;7.03;;;1.40;99.90;;;;;;4905371;29;20055;-92
2021/03/20 04:22:47;;;;;;;11.65;7.05;;;1.30;99.90;;;;;;4905236;29;20103;-92
2021/03/20 04:25:27;;;;;;;12.38;6.82;;;1.30;99.90;;;;;;4921523;29;20035;-92
2021/03/20 04:28:35;;;;;;;12.50;7.63;;;1.30;99.90;;;;;;4904476;29;20142;-92
2021/03/20 04:31:27;;;;;;;9.85;6.65;;;1.20;99.90;;;;;;4904139;29;20040;-92
2021/03/20 04:34:19;;;;;;;12.00;8.05;;;1.30;99.90;;;;;;4904963;29;20020;-92
2021/03/20 04:37:19;;;;;;;9.23;6.70;;;1.30;99.90;;;;;;4905118;29;20028;-92
2021/03/20 04:39:49;;;;;;;8.95;5.93;;;1.50;99.90;;;;;;4854135;29;20033;-92
2021/03/20 04:42:28;;;;;;;7.78;6.05;;;1.60;99.90;;;;;;4905829;29;20492;-92
2021/03/20 04:44:59;;;;;;;8.93;6.70;;;1.60;99.90;;;;;;4904883;29;20536;-92
2021/03/20 04:47:27;;;;;;;9.65;6.72;;;1.70;99.90;;;;;;4904687;29;20469;-92
2021/03/20 04:49:55;;;;;;;9.07;6.63;;;1.80;99.90;;;;;;4921776;29;20030;-92
2021/03/20 04:52:50;;;;;;;9.05;7.00;;;1.80;99.90;;;;;;4904592;29;20063;-92
2021/03/20 04:55:17;;;;;;;;;;;1.70;99.90;;;;;;4900414;29;20040;-92
2021/03/20 04:57:49;;;;;;;9.57;7.05;;;1.60;99.90;;;;;;4904432;29;19911;-92
2021/03/20 05:00:36;;;;;;;10.25;6.72;;;1.50;99.90;;;;;;4904335;29;20098;-91
2021/03/20 05:03:20;;;;;;;10.00;6.93;;;1.50;99.90;;;;;;4920349;29;20053;-92
2021/03/20 05:05:47;;;;;;;9.43;7.07;;;1.40;99.90;;;;;;4904270;29;20024;-91
2021/03/20 05:08:29;;;;;;;10.40;6.95;;;1.30;99.90;;;;;;4904272;29;20056;-92
2021/03/20 05:11:20;;;;;;;12.93;7.53;;;1.40;99.90;;;;;;4904371;29;20396;-92
2021/03/20 05:14:11;;;;;;;11.40;8.02;;;1.20;99.90;;;;;;4904463;29;20036;-92
2021/03/20 05:16:42;;;;;;;12.82;8.00;;;1.20;99.90;;;;;;4903787;29;20028;-92
2021/03/20 05:19:09;;;;;;;10.35;7.18;;;1.10;99.90;;;;;;4904635;29;20483;-92
2021/03/20 05:21:40;;;;;;;9.85;7.10;;;1.10;99.90;;;;;;4903878;29;20039;-92
2021/03/20 05:24:12;;;;;;;11.52;7.60;;;1.20;99.90;;;;;;4903970;29;20052;-91
2021/03/20 05:26:38;;;;;;;11.77;7.53;;;1.20;99.90;;;;;;4903850;29;20552;-91
2021/03/20 05:29:03;;;;;;;11.32;7.95;;;1.10;99.90;;;;;;4903702;29;20047;-92
2021/03/20 05:31:31;;;;;;;10.23;7.43;;;1.00;99.90;;;;;;4903663;29;20392;-92
2021/03/20 05:33:58;;;;;;;9.50;6.97;;;1.10;99.90;;;;;;4903781;29;20467;-91
2021/03/20 05:36:23;;;;;;;9.63;7.38;;;0.90;99.90;;;;;;4903552;29;20485;-92
2021/03/20 05:38:49;;;;;;;9.45;7.43;;;1.00;99.90;;;;;;4903494;29;20031;-91
2021/03/20 05:41:44;;;;;;;11.10;7.70;;;0.90;99.90;;;;;;4903608;29;20012;-92
2021/03/20 05:44:33;;;;;;;12.55;7.68;;;0.90;99.90;;;;;;4903221;29;20338;-92
2021/03/20 05:47:25;;;;;;;10.82;7.45;;;0.70;99.90;;;;;;4903357;29;20024;-91
2021/03/20 05:50:28;;;;;;;10.43;7.20;;;0.90;99.90;;;;;;4903374;29;20020;-91
2021/03/20 05:53:20;;;;;;;9.93;7.10;;;0.80;99.90;;;;;;4899973;29;20040;-91
2021/03/20 05:55:54;;;;;;;11.00;7.32;;;1.00;99.90;;;;;;4902473;29;20067;-92
2021/03/20 05:58:51;;;;;;;10.18;6.90;;;0.90;99.90;;;;;;4903147;29;20083;-92
2021/03/20 06:01:40;;;;;;;10.68;6.53;;;0.90;99.90;;;;;;4919771;29;20472;-91
2021/03/20 06:04:30;;;;;;;8.60;6.72;;;1.00;99.90;;;;;;4902777;29;20035;-91
2021/03/20 06:07:26;;;;;;;9.93;7.32;;;1.20;99.90;;;;;;4919470;29;20043;-91
2021/03/20 06:10:20;;;;;;;12.13;7.13;;;1.30;99.90;;;;;;4902911;29;20032;-91
2021/03/20 06:13:04;;;;;;;8.63;6.45;;;1.10;99.90;;;;;;4902597;29;20124;-91
2021/03/20 06:16:05;;;;;;;8.85;6.63;;;1.10;99.90;;;;;;4902851;29;20032;-91
2021/03/20 06:18:43;;;;;;;10.18;7.28;;;1.20;99.90;;;;;;4903061;29;20039;-91
2021/03/20 06:21:24;;;;;;;9.48;6.93;;;1.30;99.90;;;;;;4919627;29;20087;-91
2021/03/20 06:24:14;;;;;;;11.55;7.40;;;1.20;99.90;;;;;;4903307;29;20123;-91
2021/03/20 06:26:42;;;;;;;10.10;6.97;;;1.30;99.90;;;;;;4919949;29;20024;-91
2021/03/20 06:29:28;;;;;;;9.15;6.57;;;1.30;99.90;;;;;;4902222;29;20048;-91
2021/03/20 06:31:58;;;;;;;9.70;7.00;;;1.10;99.90;;;;;;4902787;29;20028;-91
2021/03/20 06:34:32;;;;;;;13.10;7.13;;;1.10;99.90;;;;;;4902597;29;20032;-91
2021/03/20 06:37:09;;;;;;;12.68;6.50;;;1.10;99.90;;;;;;4902612;29;20024;-91
2021/03/20 06:39:37;;;;;;;11.10;6.75;;;1.10;99.90;;;;;;4919435;29;20421;-91
2021/03/20 06:42:18;;;;;;;9.05;6.25;;;1.20;99.90;;;;;;4919332;29;20060;-91
2021/03/20 06:44:52;;;;;;;8.43;6.05;;;1.40;99.90;;;;;;4902464;29;20493;-91
2021/03/20 06:47:19;;;;;;;11.35;6.82;;;1.50;99.90;;;;;;4919810;29;20031;-91
2021/03/20 06:49:58;;;;;;;12.10;7.15;;;1.40;99.90;;;;;;4903017;29;20021;-91
2021/03/20 06:52:25;;;;;;;10.85;6.75;;;1.40;99.90;;;;;;4902473;29;20036;-92
2021/03/20 06:55:07;;;;;;;9.85;6.35;;;1.40;99.90;;;;;;4902553;29;20603;-92
2021/03/20 06:57:33;;;;;;;8.23;6.47;;;1.40;99.90;;;;;;4919494;29;20024;-91
2021/03/20 07:00:14;;;;;;;9.25;6.40;;;1.30;99.90;;;;;;4902533;29;20052;-92
2021/03/20 07:03:03;;;;;;;8.65;6.18;;;1.50;99.90;;;;;;4902437;29;20028;-91
2021/03/20 07:05:54;;;;;;;7.22;5.38;;;1.60;99.90;;;;;;4902458;29;20476;-92
2021/03/20 07:08:29;;;;;;;7.07;5.07;;;1.90;99.90;;;;;;4902284;29;20380;-91
2021/03/20 07:10:56;;;;;;;9.65;6.22;;;2.00;99.90;;;;;;4919724;29;20484;-92
2021/03/20 07:13:28;;;;;;;7.82;5.65;;;2.10;99.90;;;;;;4903048;29;20114;-91
2021/03/20 07:16:16;;;;;;;9.20;5.75;;;2.30;99.90;;;;;;4902392;29;20107;-92
2021/03/20 07:18:51;;;;;;;7.60;5.43;;;2.20;99.90;;;;;;4902751;29;20035;-91
2021/03/20 07:21:29;;;;;;;8.35;5.40;;;2.20;99.90;;;;;;4903095;29;20146;-91
2021/03/20 07:24:18;;;;;;;6.15;4.90;;;2.30;99.90;;;;;;4902760;29;20103;-91
2021/03/20 07:27:00;;;;;;;10.05;5.30;;;2.40;99.90;;;;;;4923068;29;20473;-90
2021/03/20 07:29:47;;;;;;;10.55;5.63;;;2.50;99.90;;;;;;4906103;29;20115;-91
2021/03/20 07:32:20;;;;;;;5.78;4.75;;;2.40;99.90;;;;;;4906623;29;20551;-92
2021/03/20 07:34:47;;;;;;;6.75;4.95;;;2.40;99.90;;;;;;4905703;29;20028;-91
2021/03/20 07:37:29;;;;;;;5.93;4.55;;;2.20;99.90;;;;;;4905508;29;20079;-91
2021/03/20 07:40:00;;;;;;;7.47;5.13;;;2.40;99.90;;;;;;4906542;29;20032;-92
2021/03/20 07:42:37;;;;;;;27.35;10.52;;;2.40;99.90;;;;;;4905544;29;20168;-90
2021/03/20 07:45:18;;;;;;;19.83;7.35;;;2.30;99.90;;;;;;4922419;29;20031;-90
2021/03/20 07:47:56;;;;;;;10.82;5.75;;;2.30;99.90;;;;;;4921919;29;20597;-90
2021/03/20 07:50:24;;;;;;;9.73;5.40;;;2.10;99.90;;;;;;4904685;29;20535;-89
2021/03/20 07:53:05;;;;;;;8.30;4.90;;;2.30;99.90;;;;;;4904415;29;20029;-90
2021/03/20 07:56:05;;;;;;;11.38;4.68;;;2.40;99.90;;;;;;4904672;29;20064;-90
2021/03/20 07:58:40;;;;;;;8.25;4.72;;;2.40;99.90;;;;;;4904746;29;20071;-90
2021/03/20 08:01:14;;;;;;;7.25;4.35;;;2.60;99.90;;;;;;4904458;29;20028;-90
2021/03/20 08:04:01;;;;;;;11.23;4.85;;;2.40;99.90;;;;;;4904565;29;20543;-89
2021/03/20 08:06:31;;;;;;;7.90;4.20;;;2.50;99.90;;;;;;4920959;29;20036;-90
2021/03/20 08:09:18;;;;;;;8.38;4.22;;;2.50;99.90;;;;;;4904151;29;20027;-89
2021/03/20 08:11:46;;;;;;;6.32;4.38;;;2.50;99.90;;;;;;4903900;29;20096;-89
2021/03/20 08:14:21;;;;;;;6.93;4.30;;;2.60;99.90;;;;;;4904312;29;20116;-89
2021/03/20 08:16:47;;;;;;;7.85;4.03;;;2.60;99.90;;;;;;4904144;29;20024;-89
2021/03/20 08:19:17;;;;;;;7.65;4.15;;;2.70;99.90;;;;;;4903679;29;20393;-89
2021/03/20 08:22:06;;;;;;;9.35;5.25;;;2.70;99.90;;;;;;4920819;29;20024;-89
2021/03/20 08:25:19;;;;;;;11.13;4.35;;;2.60;99.90;;;;;;4903762;29;20469;-89
2021/03/20 08:28:13;;;;;;;7.85;3.83;;;2.60;99.90;;;;;;4810793;29;20133;-89
2021/03/20 08:31:16;;;;;;;5.05;3.97;;;2.80;99.90;;;;;;4903703;29;20027;-89
2021/03/20 08:34:10;;;;;;;6.93;4.32;;;2.70;99.90;;;;;;4921043;29;20051;-89
2021/03/20 08:36:44;;;;;;;8.65;4.38;;;2.40;99.90;;;;;;4902743;29;20070;-89
2021/03/20 08:39:28;;;;;;;6.35;3.65;;;2.60;99.90;;;;;;4903625;29;20032;-89
2021/03/20 08:42:00;;;;;;;7.70;4.15;;;2.60;99.90;;;;;;4903745;29;20553;-90
2021/03/20 08:44:43;;;;;;;5.40;3.70;;;2.60;99.90;;;;;;4920839;29;20076;-90
2021/03/20 08:47:18;;;;;;;6.10;3.77;;;2.70;99.90;;;;;;4903040;29;20021;-89
2021/03/20 08:50:05;;;;;;;7.28;4.32;;;2.70;99.90;;;;;;4903217;29;20264;-89
2021/03/20 08:52:52;;;;;;;6.68;3.72;;;2.50;99.90;;;;;;4903554;29;20114;-89
2021/03/20 08:55:35;;;;;;;6.05;3.67;;;2.60;99.90;;;;;;4903253;29;20183;-89
2021/03/20 08:58:31;;;;;;;4.80;3.50;;;2.50;99.90;;;;;;4920034;29;20115;-89
2021/03/20 09:01:05;;;;;;;5.72;3.53;;;2.40;99.90;;;;;;4902856;29;20024;-89
2021/03/20 09:03:48;;;;;;;9.02;3.35;;;2.30;99.90;;;;;;4902982;29;20025;-89
2021/03/20 09:06:27;;;;;;;7.95;4.13;;;2.40;99.90;;;;;;4902938;29;20025;-89
2021/03/20 09:08:56;;;;;;;5.97;4.10;;;2.40;99.90;;;;;;4920081;29;20020;-89
2021/03/20 09:11:37;;;;;;;7.32;3.80;;;2.40;99.90;;;;;;4902786;29;20555;-88
2021/03/20 09:14:21;;;;;;;6.45;3.58;;;2.70;99.90;;;;;;4902575;29;20484;-89
2021/03/20 09:17:21;;;;;;;4.82;3.10;;;3.10;99.90;;;;;;4902575;29;20060;-88
2021/03/20 09:19:54;;;;;;;7.10;3.47;;;3.70;99.90;;;;;;4866932;29;20123;-87
2021/03/20 09:22:29;;;;;;;6.45;2.60;;;4.30;99.90;;;;;;4902208;29;20115;-91
2021/03/20 09:25:01;;;;;;;4.28;3.03;;;4.50;99.90;;;;;;4919709;29;20024;-90
2021/03/20 09:27:58;;;;;;;3.90;3.05;;;4.60;99.90;;;;;;4919503;29;20048;-91
2021/03/20 09:30:27;;;;;;;4.93;3.10;;;4.70;99.90;;;;;;4902915;29;20063;-90
2021/03/20 09:32:52;;;;;;;18.20;2.72;;;5.20;99.90;;;;;;4919699;29;20512;-90
2021/03/20 09:35:23;;;;;;;4.22;2.50;;;5.80;99.90;;;;;;4902692;29;20032;-90
2021/03/20 09:37:53;;;;;;;6.43;2.58;;;5.90;99.90;;;;;;4903084;29;20039;-91
2021/03/20 09:40:37;;;;;;;6.72;2.60;;;5.90;99.90;;;;;;4902893;29;20436;-91
2021/03/20 09:43:18;;;;;;;4.57;2.10;;;5.80;99.90;;;;;;4904650;29;20084;-90
2021/03/20 09:45:44;;;;;;;4.05;2.33;;;5.70;99.90;;;;;;4903659;29;20028;-91
2021/03/20 09:48:09;;;;;;;3.17;2.00;;;5.30;99.90;;;;;;4919768;29;20052;-91
2021/03/20 09:50:37;;;;;;;2.47;1.80;;;5.40;99.90;;;;;;4902485;29;20080;-90
2021/03/20 09:53:09;;;;;;;3.40;1.95;;;5.50;99.90;;;;;;4902665;29;20035;-91
2021/03/20 09:55:40;;;;;;;3.20;1.98;;;5.40;99.90;;;;;;4919522;29;20052;-91
2021/03/20 09:58:32;;;;;;;5.20;2.28;;;5.50;99.90;;;;;;4902361;29;20028;-91
2021/03/20 10:00:58;;;;;;;3.13;2.15;;;5.20;99.90;;;;;;4914411;29;20540;-91
2021/03/20 10:03:47;;;;;;;3.20;1.73;;;5.40;99.90;;;;;;4901944;29;20207;-91
2021/03/20 10:06:26;;;;;;;2.45;1.80;;;5.70;99.90;;;;;;4902541;29;20051;-91
2021/03/20 10:09:11;;;;;;;2.75;1.95;;;6.00;99.90;;;;;;4902341;29;20025;-91
2021/03/20 10:11:39;;;;;;;4.35;1.77;;;6.40;99.90;;;;;;4902456;29;20035;-90
2021/03/20 10:14:26;;;;;;;7.15;2.33;;;6.60;99.80;;;;;;4902076;29;20053;-91
2021/03/20 10:17:13;;;;;;;7.70;1.92;;;6.30;99.90;;;;;;4901457;29;20099;-91
2021/03/20 10:19:48;;;;;;;6.90;2.40;;;6.10;99.00;;;;;;4902238;29;20492;-91
2021/03/20 10:22:37;;;;;;;4.75;2.28;;;6.70;95.90;;;;;;4903231;29;20032;-91
2021/03/20 10:25:05;;;;;;;3.22;1.65;;;7.00;97.20;;;;;;4902192;29;20502;-91
2021/03/20 10:27:37;;;;;;;3.90;1.90;;;7.20;95.30;;;;;;4902540;29;20051;-91
2021/03/20 10:30:15;;;;;;;3.03;2.03;;;7.40;97.90;;;;;;4901801;29;20030;-91
2021/03/20 10:32:58;;;;;;;3.33;1.92;;;7.90;99.00;;;;;;4901768;29;20039;-91
2021/03/20 10:35:25;;;;;;;7.47;1.98;;;7.70;96.30;;;;;;4901816;29;20036;-91
2021/03/20 10:37:51;;;;;;;3.45;1.90;;;7.80;96.30;;;;;;4901162;29;20111;-90
2021/03/20 10:40:26;;;;;;;4.55;1.95;;;7.70;96.50;;;;;;4901695;29;20064;-91
2021/03/20 10:42:58;;;;;;;3.00;1.90;;;7.40;97.80;;;;;;4901768;29;20032;-92
2021/03/20 10:45:39;;;;;;;5.63;2.67;;;7.40;96.30;;;;;;4901855;29;20040;-90
2021/03/20 10:48:17;;;;;;;3.13;1.60;;;7.80;94.80;;;;;;4901882;29;20028;-90
2021/03/20 10:50:46;;;;;;;2.65;1.70;;;8.60;96.40;;;;;;4901928;29;20032;-91
2021/03/20 10:53:15;;;;;;;5.13;1.80;;;8.00;93.50;;;;;;4918553;29;20039;-92
2021/03/20 10:55:47;;;;;;;3.83;2.22;;;6.90;93.80;;;;;;4901795;29;20033;-91
2021/03/20 10:58:23;;;;;;;2.97;2.10;;;6.10;95.50;;;;;;4901649;29;20032;-91
2021/03/20 11:00:50;;;;;;;3.42;2.10;;;6.80;94.10;;;;;;4900781;29;20032;-91
2021/03/20 11:03:27;;;;;;;6.80;2.03;;;6.40;94.80;;;;;;4901676;29;20479;-91
2021/03/20 11:05:52;;;;;;;5.30;2.38;;;6.20;95.50;;;;;;4918928;29;20024;-91
2021/03/20 11:08:27;;;;;;;3.47;1.80;;;6.00;99.90;;;;;;4919426;29;20037;-90
2021/03/20 11:11:09;;;;;;;4.00;2.13;;;5.40;96.10;;;;;;4901752;29;20028;-90
2021/03/20 11:13:43;;;;;;;3.88;2.47;;;5.50;99.50;;;;;;4901706;29;20054;-90
2021/03/20 11:16:30;;;;;;;3.22;2.15;;;5.50;93.90;;;;;;4901186;29;20024;-88
2021/03/20 11:19:08;;;;;;;4.80;2.17;;;5.50;95.50;;;;;;4902136;29;20051;-90
2021/03/20 11:21:42;;;;;;;3.45;2.08;;;5.90;96.50;;;;;;4900992;29;20472;-89
2021/03/20 11:24:24;;;;;;;5.22;1.95;;;7.30;99.90;;;;;;4900862;29;20024;-89
2021/03/20 11:26:52;;;;;;;8.10;2.40;;;8.00;94.50;;;;;;4926271;29;20109;-90
2021/03/20 11:29:26;;;;;;;3.35;2.13;;;8.60;92.80;;;;;;4904897;29;20214;-89
2021/03/20 11:32:02;;;;;;;3.97;2.17;;;9.10;90.80;;;;;;4922333;29;20517;-89
2021/03/20 11:34:39;;;;;;;5.80;2.38;;;9.40;86.30;;;;;;4917913;29;20032;-89
2021/03/20 11:37:15;;;;;;;3.22;1.95;;;10.50;79.90;;;;;;4901336;29;20032;-89
2021/03/20 11:39:41;;;;;;;3.33;1.75;;;10.00;77.80;;;;;;4901384;29;20028;-90
2021/03/20 11:42:14;;;;;;;5.13;2.00;;;10.40;82.60;;;;;;4901497;29;20039;-90
2021/03/20 11:44:49;;;;;;;2.83;1.83;;;9.80;83.20;;;;;;4905074;29;20031;-90
2021/03/20 11:47:31;;;;;;;4.93;2.05;;;10.10;80.10;;;;;;4902157;29;20071;-90
2021/03/20 11:50:01;;;;;;;3.42;2.22;;;11.10;75.20;;;;;;4901683;29;20024;-89
2021/03/20 11:52:52;;;;;;;5.80;2.05;;;11.00;77.40;;;;;;4903002;29;20039;-90
2021/03/20 11:55:28;;;;;;;5.13;1.98;;;10.60;71.10;;;;;;4919002;29;20095;-89
2021/03/20 11:58:01;;;;;;;4.50;1.65;;;11.40;71.70;;;;;;4918022;29;20024;-88
2021/03/20 12:00:45;;;;;;;3.40;1.60;;;11.40;62.90;;;;;;4900548;29;20122;-88
2021/03/20 12:03:23;;;;;;;4.72;1.73;;;11.60;67.00;;;;;;4917433;29;20036;-88
2021/03/20 12:06:09;;;;;;;5.22;1.75;;;11.40;68.30;;;;;;4900521;29;20034;-88
2021/03/20 12:08:42;;;;;;;10.27;2.35;;;11.60;69.40;;;;;;4916570;29;20396;-89
2021/03/20 12:11:10;;;;;;;4.70;1.83;;;11.40;65.80;;;;;;4918700;29;20027;-88
2021/03/20 12:13:57;;;;;;;2.65;1.80;;;11.30;63.60;;;;;;4904459;29;20071;-88
2021/03/20 12:16:40;;;;;;;3.70;2.10;;;12.10;64.40;;;;;;4904112;29;20413;-88
2021/03/20 12:19:23;;;;;;;4.93;1.95;;;11.80;65.00;;;;;;4904098;29;20111;-89
2021/03/20 12:22:06;;;;;;;3.05;1.63;;;12.30;64.60;;;;;;4903581;29;20070;-89
2021/03/20 12:24:34;;;;;;;3.92;1.85;;;12.50;65.40;;;;;;4903583;29;20396;-88
2021/03/20 12:27:25;;;;;;;5.32;2.40;;;13.00;64.60;;;;;;4903254;29;20060;-88
2021/03/20 12:30:09;;;;;;;4.00;2.03;;;13.50;58.40;;;;;;4903417;29;20043;-88
2021/03/20 12:32:45;;;;;;;4.07;1.48;;;13.40;54.70;;;;;;4903440;29;20028;-88
2021/03/20 12:35:19;;;;;;;2.47;1.65;;;13.80;54.30;;;;;;4903394;29;20127;-88
2021/03/20 12:37:45;;;;;;;4.32;2.03;;;14.00;54.50;;;;;;4903047;29;20083;-88
2021/03/20 12:40:12;;;;;;;3.50;2.10;;;14.40;52.30;;;;;;4903148;29;20036;-88
2021/03/20 12:42:38;;;;;;;5.88;2.33;;;13.70;51.50;;;;;;4919869;29;20039;-88
2021/03/20 12:45:07;;;;;;;2.58;1.67;;;13.70;55.60;;;;;;4903446;29;20028;-89
2021/03/20 12:47:33;;;;;;;3.60;2.40;;;13.30;57.30;;;;;;4902882;29;20492;-89
2021/03/20 12:49:59;;;;;;;2.90;2.33;;;13.20;57.60;;;;;;4902635;29;20059;-88
2021/03/20 12:52:26;;;;;;;3.40;1.80;;;13.20;55.10;;;;;;4920052;29;20381;-88
2021/03/20 12:54:56;;;;;;;5.53;2.17;;;13.10;56.80;;;;;;4902729;29;20036;-88
2021/03/20 12:57:30;;;;;;;3.15;1.70;;;13.70;54.00;;;;;;4902713;29;20024;-89
2021/03/20 13:00:00;;;;;;;5.22;2.75;;;12.70;53.30;;;;;;4902468;29;20055;-88
2021/03/20 13:02:26;;;;;;;2.90;1.83;;;12.80;52.60;;;;;;4902467;29;20024;-88
2021/03/20 13:04:53;;;;;;;3.72;2.03;;;13.20;53.60;;;;;;4902700;29;20025;-88
2021/03/20 13:07:20;;;;;;;4.63;1.40;;;13.50;52.70;;;;;;4902993;29;20032;-89
2021/03/20 13:09:49;;;;;;;2.53;1.73;;;12.80;54.90;;;;;;4902553;29;20028;-89
2021/03/20 13:12:16;;;;;;;2.03;1.30;;;12.60;53.70;;;;;;4919496;29;20489;-88
2021/03/20 13:14:42;;;;;;;2.92;1.67;;;12.80;53.80;;;;;;4902346;29;20115;-88
2021/03/20 13:17:09;;;;;;;3.35;1.70;;;13.30;55.90;;;;;;4919281;29;20035;-88
2021/03/20 13:19:35;;;;;;;5.07;2.00;;;13.10;52.50;;;;;;4902233;29;20066;-89
2021/03/20 13:22:01;;;;;;;2.50;1.60;;;13.10;53.20;;;;;;4901575;29;20056;-87
2021/03/20 13:24:27;;;;;;;5.85;1.50;;;13.30;54.50;;;;;;4902386;29;20477;-89
2021/03/20 13:26:52;;;;;;;3.92;1.65;;;13.90;52.40;;;;;;4902063;29;20021;-88
2021/03/20 13:29:18;;;;;;;6.82;2.03;;;15.10;50.10;;;;;;4901675;29;20052;-88
2021/03/20 13:31:44;;;;;;;4.75;2.25;;;15.30;47.90;;;;;;4901905;29;20143;-88
2021/03/20 13:34:10;;;;;;;4.28;1.60;;;13.70;51.00;;;;;;4901834;29;20028;-89
2021/03/20 13:36:36;;;;;;;4.93;1.80;;;14.00;49.60;;;;;;4901939;29;20111;-88
2021/03/20 13:39:04;;;;;;;2.67;1.88;;;13.80;48.90;;;;;;4902804;29;20036;-89